Airport View

Enter AWOS ICAO identifier for current METAR.

ex. KFNL

KINW 212356Z AUTO 27018G22KT 10SM CLR 27/M05 A3000 RMK AO2 SLP105 T02671050 10289 20233 55004

22 Sep 2019 00:07

Frequency: 118.875

Phone: 928-289-0134

Other Area AWOS: KTYL - KFLG - KSEZ - KPAN

TAF KINW 212320Z 2200/2224 25014G22KT P6SM SKC FM220100 VRB06KT P6SM SKC